createdAt,value
2019-04-27T00:01:12.133Z,6.90
2019-04-27T00:03:24.357Z,7.50
2019-04-27T00:05:39.994Z,8.05
2019-04-27T00:07:51.461Z,7.70
2019-04-27T00:09:58.366Z,7.30
2019-04-27T00:12:06.773Z,7.67
2019-04-27T00:14:14.964Z,7.37
2019-04-27T00:16:26.438Z,7.90
2019-04-27T00:18:35.740Z,8.03
2019-04-27T00:20:48.115Z,7.53
2019-04-27T00:23:03.384Z,8.20
2019-04-27T00:25:10.652Z,7.45
2019-04-27T00:27:17.582Z,7.40
2019-04-27T00:29:25.952Z,7.37
2019-04-27T00:31:33.694Z,8.03
2019-04-27T00:33:40.684Z,7.78
2019-04-27T00:35:49.040Z,7.85
2019-04-27T00:38:00.333Z,8.15
2019-04-27T00:40:09.734Z,9.03
2019-04-27T00:42:17.630Z,8.60
2019-04-27T00:44:24.372Z,8.93
2019-04-27T00:46:32.907Z,9.58
2019-04-27T00:48:39.587Z,9.18
2019-04-27T00:50:46.258Z,9.60
2019-04-27T00:52:53.272Z,10.18
2019-04-27T00:55:00.146Z,9.53
2019-04-27T00:57:14.482Z,10.05
2019-04-27T00:59:38.012Z,9.65
2019-04-27T01:01:46.644Z,9.68
2019-04-27T01:03:55.213Z,10.23
2019-04-27T01:06:03.268Z,9.15
2019-04-27T01:08:10.083Z,9.87
2019-04-27T01:10:16.834Z,9.75
2019-04-27T01:12:23.782Z,8.95
2019-04-27T01:14:30.522Z,8.53
2019-04-27T01:16:37.276Z,9.33
2019-04-27T01:18:44.003Z,9.73
2019-04-27T01:20:50.786Z,9.00
2019-04-27T01:22:59.341Z,8.70
2019-04-27T01:25:08.811Z,8.80
2019-04-27T01:27:29.583Z,8.63
2019-04-27T01:29:39.265Z,8.25
2019-04-27T01:31:46.488Z,8.98
2019-04-27T01:33:53.254Z,9.55
2019-04-27T01:35:59.921Z,9.13
2019-04-27T01:38:06.687Z,8.35
2019-04-27T01:40:13.677Z,8.13
2019-04-27T01:42:20.431Z,8.53
2019-04-27T01:44:27.200Z,9.00
2019-04-27T01:46:33.967Z,9.13
2019-04-27T01:48:40.691Z,8.35
2019-04-27T01:50:49.112Z,9.18
2019-04-27T01:52:55.908Z,8.48
2019-04-27T01:55:02.721Z,8.90
2019-04-27T01:57:10.325Z,8.28
2019-04-27T01:59:17.260Z,9.13
2019-04-27T02:01:42.064Z,9.05
2019-04-27T02:04:09.248Z,8.88
2019-04-27T02:06:16.214Z,9.43
2019-04-27T02:08:22.883Z,10.10
2019-04-27T02:10:29.651Z,8.93
2019-04-27T02:12:36.348Z,9.60
2019-04-27T02:14:43.112Z,9.33
2019-04-27T02:16:49.866Z,9.80
2019-04-27T02:18:58.460Z,9.13
2019-04-27T02:21:05.884Z,9.60
2019-04-27T02:23:12.571Z,9.55
2019-04-27T02:25:21.147Z,9.55
2019-04-27T02:27:30.200Z,10.13
2019-04-27T02:29:39.032Z,8.80
2019-04-27T02:31:58.007Z,8.80
2019-04-27T02:34:04.443Z,7.80
2019-04-27T02:36:14.926Z,8.58
2019-04-27T02:38:20.271Z,8.60
2019-04-27T02:40:51.467Z,9.35
2019-04-27T02:42:59.799Z,9.65
2019-04-27T02:45:09.643Z,9.78
2019-04-27T02:49:21.430Z,9.03
2019-04-27T02:51:30.093Z,9.28
2019-04-27T02:53:54.639Z,9.53
2019-04-27T02:56:01.383Z,9.45
2019-04-27T02:58:12.308Z,9.73
2019-04-27T03:00:17.228Z,9.93
2019-04-27T03:02:29.987Z,9.65
2019-04-27T03:04:39.671Z,11.30
2019-04-27T03:06:45.766Z,9.70
2019-04-27T03:08:54.190Z,9.35
2019-04-27T03:11:01.295Z,10.08
2019-04-27T03:13:15.467Z,9.10
2019-04-27T03:15:26.666Z,9.13
2019-04-27T03:17:35.001Z,10.65
2019-04-27T03:19:43.345Z,11.60
2019-04-27T03:22:00.935Z,13.08
2019-04-27T03:24:09.827Z,11.80
2019-04-27T03:26:23.325Z,9.83
2019-04-27T03:28:31.061Z,10.72
2019-04-27T03:30:42.129Z,9.23
2019-04-27T03:32:46.320Z,10.23
2019-04-27T03:34:53.067Z,9.83
2019-04-27T03:36:59.866Z,9.20
2019-04-27T03:39:10.183Z,9.88
2019-04-27T03:41:19.106Z,9.30
2019-04-27T03:43:26.941Z,9.08
2019-04-27T03:45:33.591Z,8.98
2019-04-27T03:47:41.023Z,9.38
2019-04-27T03:49:50.611Z,9.13
2019-04-27T03:52:09.651Z,9.05
2019-04-27T03:56:30.590Z,8.90
2019-04-27T03:58:55.089Z,11.73
2019-04-27T04:01:01.834Z,8.98
2019-04-27T04:03:10.606Z,10.35
2019-04-27T04:05:16.889Z,8.70
2019-04-27T04:07:24.170Z,9.28
2019-04-27T04:09:40.978Z,9.63
2019-04-27T04:11:49.282Z,9.65
2019-04-27T04:14:00.417Z,9.98
2019-04-27T04:16:25.170Z,9.73
2019-04-27T04:18:33.476Z,10.48
2019-04-27T04:20:40.595Z,9.70
2019-04-27T04:22:47.472Z,9.43
2019-04-27T04:24:54.157Z,9.75
2019-04-27T04:27:00.858Z,9.50
2019-04-27T04:29:10.329Z,9.18
2019-04-27T04:31:16.511Z,9.55
2019-04-27T04:33:23.266Z,10.32
2019-04-27T04:35:32.468Z,9.23
2019-04-27T04:37:39.446Z,9.53
2019-04-27T04:39:49.862Z,8.88
2019-04-27T04:42:11.930Z,8.93
2019-04-27T04:44:36.354Z,9.35
2019-04-27T04:46:50.645Z,9.50
2019-04-27T04:48:57.420Z,8.38
2019-04-27T04:51:04.182Z,9.33
2019-04-27T04:53:12.177Z,9.45
2019-04-27T04:55:20.347Z,9.10
2019-04-27T04:59:35.896Z,8.78
2019-04-27T05:01:42.664Z,8.93
2019-04-27T05:03:49.327Z,8.48
2019-04-27T05:05:56.059Z,8.43
2019-04-27T05:08:02.880Z,8.95
2019-04-27T05:10:09.831Z,9.63
2019-04-27T05:12:16.511Z,8.75
2019-04-27T05:14:23.297Z,9.28
2019-04-27T05:16:32.702Z,8.40
2019-04-27T05:18:39.394Z,9.65
2019-04-27T05:20:48.652Z,9.23
2019-04-27T05:22:55.493Z,9.33
2019-04-27T05:25:02.162Z,9.03
2019-04-27T05:27:09.311Z,9.43
2019-04-27T05:29:16.279Z,8.70
2019-04-27T05:31:22.948Z,9.20
2019-04-27T05:33:29.714Z,9.30
2019-04-27T05:35:36.390Z,9.23
2019-04-27T05:37:44.487Z,9.30
2019-04-27T05:39:51.334Z,9.15
2019-04-27T05:41:59.687Z,8.85
2019-04-27T05:44:07.669Z,9.10
2019-04-27T05:46:39.664Z,9.75
2019-04-27T05:48:46.616Z,8.88
2019-04-27T05:50:58.880Z,9.78
2019-04-27T05:53:01.683Z,8.50
2019-04-27T05:55:10.511Z,8.98
2019-04-27T05:57:19.483Z,8.93
2019-04-27T05:59:26.270Z,8.85
2019-04-27T06:01:32.996Z,8.85
2019-04-27T06:03:39.825Z,9.28
2019-04-27T06:05:46.545Z,9.50
2019-04-27T06:07:53.284Z,9.70
2019-04-27T06:10:00.115Z,9.10
2019-04-27T06:12:06.916Z,8.98
2019-04-27T06:14:13.655Z,9.40
2019-04-27T06:16:20.341Z,9.53
2019-04-27T06:18:27.214Z,9.73
2019-04-27T06:20:34.071Z,9.90
2019-04-27T06:22:40.746Z,9.33
2019-04-27T06:24:52.742Z,8.73
2019-04-27T06:26:57.343Z,9.20
2019-04-27T06:29:04.124Z,9.93
2019-04-27T06:31:10.823Z,9.38
2019-04-27T06:33:27.991Z,12.55
2019-04-27T06:37:31.630Z,9.25
2019-04-27T06:39:38.729Z,9.20
2019-04-27T06:41:47.011Z,8.43
2019-04-27T06:43:53.708Z,8.45
2019-04-27T06:46:00.384Z,8.95
2019-04-27T06:48:07.041Z,8.35
2019-04-27T06:50:13.825Z,8.90
2019-04-27T06:52:20.485Z,8.25
2019-04-27T06:54:28.973Z,8.50
2019-04-27T06:56:35.820Z,7.90
2019-04-27T06:58:42.500Z,8.05
2019-04-27T07:00:49.691Z,8.85
2019-04-27T07:02:56.625Z,7.80
2019-04-27T07:05:04.737Z,7.62
2019-04-27T07:07:11.422Z,7.45
2019-04-27T07:09:19.543Z,8.03
2019-04-27T07:13:32.274Z,9.45
2019-04-27T07:15:39.105Z,8.98
2019-04-27T07:17:48.712Z,8.90
2019-04-27T07:19:59.237Z,9.28
2019-04-27T07:22:06.076Z,8.30
2019-04-27T07:24:13.842Z,8.65
2019-04-27T07:26:21.265Z,9.18
2019-04-27T07:28:28.645Z,8.73
2019-04-27T07:30:35.695Z,7.95
2019-04-27T07:32:42.391Z,8.13
2019-04-27T07:34:49.779Z,8.95
2019-04-27T07:36:56.662Z,8.45
2019-04-27T07:39:06.739Z,9.25
2019-04-27T07:41:13.496Z,8.98
2019-04-27T07:43:21.784Z,8.40
2019-04-27T07:47:36.157Z,9.00
2019-04-27T07:49:42.822Z,9.90
2019-04-27T07:51:50.506Z,10.25
2019-04-27T07:53:58.779Z,10.60
2019-04-27T07:56:05.841Z,10.18
2019-04-27T07:58:12.514Z,11.12
2019-04-27T08:00:19.495Z,10.25
2019-04-27T08:02:29.127Z,10.60
2019-04-27T08:04:35.985Z,12.13
2019-04-27T08:06:42.762Z,12.18
2019-04-27T08:08:49.433Z,10.20
2019-04-27T08:10:56.170Z,10.63
2019-04-27T08:13:04.136Z,11.70
2019-04-27T08:15:11.856Z,11.68
2019-04-27T08:17:19.133Z,12.28
2019-04-27T08:19:26.194Z,11.18
2019-04-27T08:21:43.056Z,12.58
2019-04-27T08:23:41.399Z,11.12
2019-04-27T08:25:49.654Z,11.65
2019-04-27T08:28:06.787Z,11.55
2019-04-27T08:30:30.280Z,13.78
2019-04-27T08:32:44.398Z,12.88
2019-04-27T08:34:51.151Z,14.28
2019-04-27T08:36:58.438Z,14.90
2019-04-27T08:39:08.924Z,13.58
2019-04-27T08:41:16.264Z,14.43
2019-04-27T08:43:22.929Z,15.08
2019-04-27T08:45:29.698Z,15.68
2019-04-27T08:47:36.370Z,17.20
2019-04-27T08:49:43.958Z,15.30
2019-04-27T08:51:57.263Z,17.02
2019-04-27T08:53:59.205Z,17.55
2019-04-27T08:56:05.896Z,17.75
2019-04-27T08:58:12.690Z,17.87
2019-04-27T09:00:20.934Z,17.15
2019-04-27T09:02:39.795Z,18.87
2019-04-27T09:04:39.446Z,18.85
2019-04-27T09:06:49.361Z,18.73
2019-04-27T09:08:59.277Z,19.10
2019-04-27T09:11:10.670Z,17.37
2019-04-27T09:13:24.739Z,18.15
2019-04-27T09:15:33.025Z,19.23
2019-04-27T09:19:50.514Z,16.37
2019-04-27T09:22:13.624Z,17.35
2019-04-27T09:24:13.393Z,17.23
2019-04-27T09:26:20.066Z,17.02
2019-04-27T09:28:26.909Z,18.52
2019-04-27T09:30:34.701Z,17.50
2019-04-27T09:32:41.547Z,17.97
2019-04-27T09:34:48.911Z,17.48
2019-04-27T09:36:57.021Z,15.83
2019-04-27T09:39:10.379Z,18.02
2019-04-27T09:41:17.121Z,16.48
2019-04-27T09:43:28.831Z,16.80
2019-04-27T09:45:37.154Z,17.90
2019-04-27T09:47:46.802Z,18.45
2019-04-27T09:49:53.877Z,16.45
2019-04-27T09:52:00.646Z,16.75
2019-04-27T09:54:07.398Z,17.27
2019-04-27T09:56:14.185Z,17.65
2019-04-27T09:58:20.948Z,17.27
2019-04-27T10:00:27.954Z,16.65
2019-04-27T10:02:36.664Z,17.30
2019-04-27T10:04:43.558Z,18.20
2019-04-27T10:06:56.995Z,18.20
2019-04-27T10:09:08.947Z,17.07
2019-04-27T10:11:16.254Z,16.45
2019-04-27T10:13:23.066Z,17.40
2019-04-27T10:15:29.831Z,17.52
2019-04-27T10:17:40.045Z,16.57
2019-04-27T10:19:47.020Z,17.35
2019-04-27T10:21:53.734Z,17.45
2019-04-27T10:24:00.413Z,16.45
2019-04-27T10:26:08.183Z,16.50
2019-04-27T10:28:14.951Z,16.32
2019-04-27T10:30:21.691Z,16.65
2019-04-27T10:32:28.383Z,16.27
2019-04-27T10:34:35.244Z,16.52
2019-04-27T10:36:42.098Z,15.93
2019-04-27T10:38:49.313Z,15.95
2019-04-27T10:40:56.218Z,15.35
2019-04-27T10:43:18.860Z,17.15
2019-04-27T10:45:25.513Z,16.55
2019-04-27T10:47:32.328Z,16.62
2019-04-27T10:49:38.998Z,16.90
2019-04-27T10:51:46.942Z,18.13
2019-04-27T10:53:55.760Z,16.50
2019-04-27T10:56:02.512Z,15.95
2019-04-27T10:58:10.594Z,16.27
2019-04-27T11:00:19.224Z,16.42
2019-04-27T11:02:25.983Z,16.45
2019-04-27T11:04:35.996Z,17.20
2019-04-27T11:06:47.284Z,17.30
2019-04-27T11:08:55.942Z,16.45
2019-04-27T11:11:08.822Z,17.50
2019-04-27T11:13:17.056Z,16.97
2019-04-27T11:15:26.258Z,16.52
2019-04-27T11:17:32.867Z,16.60
2019-04-27T11:19:40.960Z,17.20
2019-04-27T11:21:47.718Z,17.30
2019-04-27T11:23:55.975Z,18.10
2019-04-27T11:26:07.583Z,16.02
2019-04-27T11:28:15.848Z,17.75
2019-04-27T11:30:23.020Z,16.87
2019-04-27T11:32:29.814Z,17.00
2019-04-27T11:34:55.853Z,18.85
2019-04-27T11:37:05.557Z,15.45
2019-04-27T11:39:19.698Z,16.90
2019-04-27T11:41:26.260Z,17.07
2019-04-27T11:43:33.188Z,17.13
2019-04-27T11:45:45.627Z,16.95
2019-04-27T11:47:52.238Z,17.00
2019-04-27T11:49:58.920Z,17.25
2019-04-27T11:52:05.868Z,16.77
2019-04-27T11:54:12.644Z,16.40
2019-04-27T11:56:19.413Z,14.35
2019-04-27T11:58:26.590Z,16.87
2019-04-27T12:00:33.541Z,14.47
2019-04-27T12:02:41.409Z,16.83
2019-04-27T12:04:48.175Z,14.65
2019-04-27T12:06:56.486Z,16.32
2019-04-27T12:09:05.099Z,13.32
2019-04-27T12:11:11.979Z,14.70
2019-04-27T12:13:18.645Z,17.20
2019-04-27T12:15:26.265Z,16.05
2019-04-27T12:17:35.879Z,15.30
2019-04-27T12:19:42.811Z,15.23
2019-04-27T12:21:49.495Z,16.30
2019-04-27T12:23:56.776Z,15.40
2019-04-27T12:26:05.799Z,15.15
2019-04-27T12:28:20.851Z,16.17
2019-04-27T12:30:33.245Z,13.85
2019-04-27T12:32:39.910Z,15.25
2019-04-27T12:34:46.597Z,14.35
2019-04-27T12:36:53.532Z,15.30
2019-04-27T12:39:00.276Z,13.40
2019-04-27T12:41:08.450Z,14.73
2019-04-27T12:43:15.221Z,14.75
2019-04-27T12:45:22.090Z,13.48
2019-04-27T12:47:30.734Z,13.93
2019-04-27T12:49:37.844Z,15.40
2019-04-27T12:51:45.660Z,14.35
2019-04-27T12:53:59.850Z,14.40
2019-04-27T12:56:06.640Z,14.53
2019-04-27T12:58:16.415Z,14.05
2019-04-27T13:00:34.178Z,15.15
2019-04-27T13:02:41.497Z,14.13
2019-04-27T13:04:48.166Z,13.93
2019-04-27T13:06:55.875Z,14.13
2019-04-27T13:09:02.895Z,15.17
2019-04-27T13:11:11.086Z,14.85
2019-04-27T13:13:17.750Z,14.98
2019-04-27T13:15:24.456Z,13.83
2019-04-27T13:17:31.230Z,14.87
2019-04-27T13:19:37.994Z,14.73
2019-04-27T13:21:46.805Z,15.45
2019-04-27T13:24:02.023Z,14.90
2019-04-27T13:26:01.509Z,15.00
2019-04-27T13:28:08.307Z,13.72
2019-04-27T13:30:16.419Z,14.93
2019-04-27T13:32:23.229Z,14.47
2019-04-27T13:34:29.930Z,15.08
2019-04-27T13:36:36.890Z,13.55
2019-04-27T13:38:43.794Z,14.73
2019-04-27T13:41:07.326Z,14.60
2019-04-27T13:43:16.687Z,13.80
2019-04-27T13:45:26.636Z,14.43
2019-04-27T13:47:51.896Z,13.93
2019-04-27T13:50:00.211Z,15.15
2019-04-27T13:52:08.525Z,14.68
2019-04-27T13:54:23.818Z,14.70
2019-04-27T13:56:23.775Z,12.23
2019-04-27T13:58:30.511Z,13.55
2019-04-27T14:00:37.893Z,13.75
2019-04-27T14:02:44.673Z,12.55
2019-04-27T14:04:51.406Z,12.90
2019-04-27T14:06:59.030Z,12.35
2019-04-27T14:09:09.230Z,13.83
2019-04-27T14:11:18.348Z,12.95
2019-04-27T14:13:25.198Z,13.95
2019-04-27T14:15:31.961Z,13.35
2019-04-27T14:17:39.170Z,13.45
2019-04-27T14:19:48.103Z,13.50
2019-04-27T14:21:54.718Z,13.88
2019-04-27T14:24:01.388Z,15.08
2019-04-27T14:26:10.632Z,13.83
2019-04-27T14:28:18.308Z,12.73
2019-04-27T14:30:25.215Z,12.88
2019-04-27T14:32:31.931Z,13.62
2019-04-27T14:34:38.655Z,14.58
2019-04-27T14:36:46.326Z,15.65
2019-04-27T14:38:53.121Z,14.87
2019-04-27T14:40:59.850Z,15.10
2019-04-27T14:43:08.373Z,13.65
2019-04-27T14:45:15.318Z,14.35
2019-04-27T14:47:22.477Z,13.70
2019-04-27T14:49:30.677Z,13.60
2019-04-27T14:51:39.914Z,12.00
2019-04-27T14:53:48.863Z,14.55
2019-04-27T14:58:01.471Z,13.15
2019-04-27T15:00:10.390Z,14.25
2019-04-27T15:04:22.751Z,14.43
2019-04-27T15:06:30.211Z,13.53
2019-04-27T15:08:38.356Z,14.10
2019-04-27T15:10:46.487Z,15.43
2019-04-27T15:12:55.447Z,15.68
2019-04-27T15:15:01.859Z,14.58
2019-04-27T15:17:10.448Z,15.13
2019-04-27T15:19:19.371Z,14.65
2019-04-27T15:21:26.123Z,15.93
2019-04-27T15:23:32.962Z,15.78
2019-04-27T15:25:45.611Z,15.43
2019-04-27T15:27:52.572Z,16.73
2019-04-27T15:30:03.122Z,15.63
2019-04-27T15:32:12.401Z,15.23
2019-04-27T15:34:18.913Z,16.45
2019-04-27T15:36:43.486Z,17.45
2019-04-27T15:38:53.754Z,17.05
2019-04-27T15:41:05.993Z,17.02
2019-04-27T15:43:14.353Z,16.77
2019-04-27T15:45:24.330Z,17.17
2019-04-27T15:47:29.534Z,16.48
2019-04-27T15:49:36.297Z,17.17
2019-04-27T15:51:42.968Z,17.95
2019-04-27T15:53:50.779Z,17.25
2019-04-27T15:56:00.863Z,15.23
2019-04-27T15:58:08.197Z,16.15
2019-04-27T16:00:21.034Z,15.00
2019-04-27T16:02:28.878Z,15.83
2019-04-27T16:04:38.121Z,14.68
2019-04-27T16:06:47.550Z,14.65
2019-04-27T16:08:52.906Z,15.05
2019-04-27T16:10:59.647Z,12.35
2019-04-27T16:13:07.439Z,14.55
2019-04-27T16:15:17.521Z,14.38
2019-04-27T16:19:29.450Z,13.80
2019-04-27T16:21:41.590Z,14.05
2019-04-27T16:23:44.598Z,11.85
2019-04-27T16:25:51.570Z,12.47
2019-04-27T16:27:58.400Z,12.00
2019-04-27T16:30:11.498Z,11.65
2019-04-27T16:32:17.462Z,13.30
2019-04-27T16:34:24.256Z,13.80
2019-04-27T16:36:31.133Z,13.18
2019-04-27T16:39:03.872Z,12.85
2019-04-27T16:41:12.239Z,14.15
2019-04-27T16:43:18.908Z,12.00
2019-04-27T16:45:27.182Z,13.38
2019-04-27T16:47:34.837Z,13.85
2019-04-27T16:49:44.236Z,16.23
2019-04-27T16:51:49.888Z,15.78
2019-04-27T16:54:00.365Z,14.78
2019-04-27T16:56:14.548Z,14.87
2019-04-27T16:58:20.726Z,14.05
2019-04-27T17:00:29.578Z,14.60
2019-04-27T17:02:35.520Z,14.45
2019-04-27T17:04:44.628Z,14.73
2019-04-27T17:06:52.009Z,14.90
2019-04-27T17:09:05.643Z,14.40
2019-04-27T17:12:41.267Z,16.62
2019-04-27T17:13:18.613Z,14.60
2019-04-27T17:15:46.092Z,13.60
2019-04-27T17:17:53.861Z,15.15
2019-04-27T17:20:02.230Z,15.45
2019-04-27T17:22:10.368Z,14.80
2019-04-27T17:24:42.078Z,15.05
2019-04-27T17:26:43.751Z,13.85
2019-04-27T17:28:56.449Z,14.23
2019-04-27T17:31:03.260Z,15.20
2019-04-27T17:33:15.259Z,15.53
2019-04-27T17:35:23.035Z,15.98
2019-04-27T17:37:33.651Z,14.53
2019-04-27T17:39:38.749Z,16.90
2019-04-27T17:41:49.157Z,15.83
2019-04-27T17:43:53.963Z,15.48
2019-04-27T17:46:00.767Z,15.03
2019-04-27T17:48:10.885Z,14.47
2019-04-27T17:50:18.389Z,14.70
2019-04-27T17:52:24.362Z,14.00
2019-04-27T17:54:31.039Z,14.73
2019-04-27T17:56:48.138Z,13.80
2019-04-27T17:58:48.610Z,14.23
2019-04-27T18:00:55.020Z,14.45
2019-04-27T18:03:01.756Z,14.45
2019-04-27T18:05:13.172Z,15.20
2019-04-27T18:07:19.084Z,14.93
2019-04-27T18:09:25.863Z,14.63
2019-04-27T18:11:37.092Z,14.95
2019-04-27T18:13:42.304Z,17.00
2019-04-27T18:15:52.469Z,14.55
2019-04-27T18:18:02.762Z,16.62
2019-04-27T18:20:18.408Z,16.25
2019-04-27T18:22:25.214Z,14.58
2019-04-27T18:24:33.549Z,15.08
2019-04-27T18:26:49.565Z,17.15
2019-04-27T18:28:53.869Z,16.73
2019-04-27T18:30:59.918Z,14.95
2019-04-27T18:33:07.991Z,14.87
2019-04-27T18:35:19.922Z,16.07
2019-04-27T18:37:25.275Z,16.50
2019-04-27T18:39:31.973Z,17.23
2019-04-27T18:41:44.487Z,18.85
2019-04-27T18:43:52.218Z,17.87
2019-04-27T18:48:13.461Z,17.07
2019-04-27T18:50:29.105Z,16.70
2019-04-27T18:52:49.995Z,16.23
2019-04-27T18:54:56.158Z,17.23
2019-04-27T18:57:04.951Z,17.48
2019-04-27T18:59:11.823Z,18.87
2019-04-27T19:01:18.820Z,18.00
2019-04-27T19:03:29.703Z,22.90
2019-04-27T19:05:40.218Z,18.40
2019-04-27T19:07:45.026Z,20.48
2019-04-27T19:09:53.191Z,17.95
2019-04-27T19:11:59.878Z,19.05
2019-04-27T19:14:08.237Z,18.65
2019-04-27T19:16:16.435Z,18.60
2019-04-27T19:18:23.230Z,17.27
2019-04-27T19:20:29.987Z,19.82
2019-04-27T19:22:38.468Z,19.85
2019-04-27T19:24:46.824Z,18.77
2019-04-27T19:26:58.780Z,19.25
2019-04-27T19:29:08.588Z,17.80
2019-04-27T19:31:21.419Z,18.40
2019-04-27T19:33:30.883Z,17.27
2019-04-27T19:35:39.057Z,19.47
2019-04-27T19:37:48.682Z,18.05
2019-04-27T19:39:58.765Z,18.90
2019-04-27T19:42:07.152Z,17.60
2019-04-27T19:44:15.366Z,19.37
2019-04-27T19:46:23.682Z,18.67
2019-04-27T19:48:30.493Z,19.82
2019-04-27T19:50:39.141Z,18.00
2019-04-27T19:52:50.302Z,17.70
2019-04-27T19:54:58.523Z,18.75
2019-04-27T19:57:09.069Z,18.67
2019-04-27T19:59:18.780Z,17.27
2019-04-27T20:01:30.096Z,19.62
2019-04-27T20:03:42.931Z,17.57
2019-04-27T20:05:51.250Z,19.32
2019-04-27T20:08:00.877Z,18.48
2019-04-27T20:10:09.993Z,19.17
2019-04-27T20:12:17.793Z,19.75
2019-04-27T20:14:25.769Z,19.32
2019-04-27T20:16:32.458Z,18.42
2019-04-27T20:18:39.131Z,18.87
2019-04-27T20:20:45.843Z,19.45
2019-04-27T20:22:54.095Z,20.15
2019-04-27T20:25:01.830Z,18.30
2019-04-27T20:27:10.797Z,19.02
2019-04-27T20:29:17.689Z,17.80
2019-04-27T20:31:26.774Z,17.70
2019-04-27T20:33:35.354Z,17.65
2019-04-27T20:35:42.694Z,17.02
2019-04-27T20:37:49.464Z,17.52
2019-04-27T20:39:56.227Z,18.55
2019-04-27T20:42:02.986Z,19.25
2019-04-27T20:44:12.637Z,17.95
2019-04-27T20:46:22.545Z,18.57
2019-04-27T20:48:29.002Z,16.73
2019-04-27T20:50:35.680Z,17.15
2019-04-27T20:52:42.152Z,19.52
2019-04-27T20:54:48.906Z,17.50
2019-04-27T20:56:57.345Z,16.25
2019-04-27T20:59:04.350Z,16.35
2019-04-27T21:01:11.806Z,16.82
2019-04-27T21:03:35.054Z,18.32
2019-04-27T21:05:43.396Z,16.48
2019-04-27T21:08:01.451Z,18.35
2019-04-27T21:10:09.126Z,21.45
2019-04-27T21:12:16.005Z,17.45
2019-04-27T21:14:23.302Z,18.00
2019-04-27T21:16:31.347Z,17.52
2019-04-27T21:18:38.183Z,17.47
2019-04-27T21:20:44.867Z,17.42
2019-04-27T21:22:53.508Z,18.37
2019-04-27T21:25:01.592Z,17.98
2019-04-27T21:27:08.624Z,17.12
2019-04-27T21:29:15.406Z,16.57
2019-04-27T21:31:22.191Z,18.00
2019-04-27T21:33:28.864Z,16.93
2019-04-27T21:35:37.041Z,17.57
2019-04-27T21:37:43.817Z,17.87
2019-04-27T21:39:53.295Z,17.45
2019-04-27T21:42:00.954Z,18.52
2019-04-27T21:44:07.779Z,16.60
2019-04-27T21:46:14.509Z,17.17
2019-04-27T21:48:22.246Z,17.23
2019-04-27T21:50:31.237Z,17.45
2019-04-27T21:52:42.510Z,15.30
2019-04-27T21:54:51.259Z,19.65
2019-04-27T21:56:58.118Z,18.48
2019-04-27T21:59:06.157Z,20.57
2019-04-27T22:01:21.634Z,17.50
2019-04-27T22:03:29.405Z,17.32
2019-04-27T22:05:36.591Z,16.97
2019-04-27T22:07:43.285Z,16.32
2019-04-27T22:09:51.717Z,16.45
2019-04-27T22:11:58.712Z,15.25
2019-04-27T22:14:06.396Z,15.25
2019-04-27T22:16:13.216Z,15.93
2019-04-27T22:18:21.240Z,16.82
2019-04-27T22:20:29.345Z,14.67
2019-04-27T22:22:41.379Z,16.17
2019-04-27T22:24:48.298Z,15.35
2019-04-27T22:26:55.146Z,15.32
2019-04-27T22:29:02.131Z,14.40
2019-04-27T22:31:12.375Z,15.68
2019-04-27T22:33:17.998Z,16.17
2019-04-27T22:35:24.756Z,16.00
2019-04-27T22:37:33.212Z,18.32
2019-04-27T22:39:44.601Z,16.32
2019-04-27T22:41:56.817Z,16.10
2019-04-27T22:44:08.595Z,15.38
2019-04-27T22:46:25.962Z,15.65
2019-04-27T22:48:33.021Z,16.80
2019-04-27T22:50:41.370Z,15.60
2019-04-27T22:52:48.282Z,16.27
2019-04-27T22:54:55.075Z,16.27
2019-04-27T22:57:03.403Z,16.55
2019-04-27T22:59:21.488Z,17.52
2019-04-27T23:01:27.992Z,16.27
2019-04-27T23:03:36.301Z,16.10
2019-04-27T23:05:43.111Z,16.40
2019-04-27T23:07:51.608Z,16.73
2019-04-27T23:09:58.469Z,16.42
2019-04-27T23:12:06.218Z,16.75
2019-04-27T23:14:12.925Z,16.10
2019-04-27T23:16:21.856Z,16.65
2019-04-27T23:20:34.373Z,15.45
2019-04-27T23:22:41.041Z,15.15
2019-04-27T23:24:47.816Z,15.95
2019-04-27T23:26:55.179Z,15.72
2019-04-27T23:29:12.973Z,16.35
2019-04-27T23:31:24.189Z,15.68
2019-04-27T23:33:31.214Z,14.33
2019-04-27T23:35:37.954Z,14.07
2019-04-27T23:37:44.698Z,15.08
2019-04-27T23:39:51.489Z,15.50
2019-04-27T23:41:58.169Z,15.18
2019-04-27T23:44:04.897Z,14.00
2019-04-27T23:46:11.681Z,15.00
2019-04-27T23:48:18.407Z,13.58
2019-04-27T23:50:26.722Z,14.75
2019-04-27T23:52:52.594Z,14.58
2019-04-27T23:54:59.489Z,15.70
2019-04-27T23:57:06.168Z,15.78
2019-04-27T23:59:24.210Z,16.05
